Terminal Aerodrome Forecast
Issued by NWS Melbourne, FL

Home | Current Version | Previous Version | Text Only | Print | Product List | Glossary On
Versions: 1 2 3 4 5 6 7 8 9 10 11 12 13
000
FTUS42 KMLB 241700
TAFVRB
TAF
KVRB 241732Z 2418/2518 12010KT P6SM FEW040
     FM250100 VRB03KT P6SM FEW080 SCT250
      TEMPO 2510/2512 4SM BR SCT005
     FM251400 22006KT P6SM FEW040=

USA.gov is the U.S. government's official web portal to all federal, state and local government web resources and services.